Portada
METAR-TAF:

METAR-TAF

Aeroports :

Lappeenranta, Finlàndia

latitud: 61-02-45N, longitud: 028-08-55E, altitud: 106 m

Observació

L'informe es va fer fa 10 minuts, a les 20:20 UTC
Vent 5 kt del Est
Temperatura 12°C
Humitat 54%
Pressió 1012 hPa
Visibilitat 10 km o més
sense núvols per sota de 1500 mi sense presència de cumulonimbus.

METAR: EFLP 032020Z AUTO 08005KT CAVOK 12/03 Q1012

Hora: 23:30 (20:30 UTC)


TAF: manca

Observacions i pronòstics meteorològics de més de 4000 aeroports (METAR i TAF).

Les estacions disponibles són els punts grocs i vermells al mapa.

Posi el ratolí al punt desitjat per veure el nom de l'estació.

Feu clic per veure les observacions i els pronòstics meteorològics.

Per canviar el mapa: feu clic els botons verds amb una creu de color negre per apropar; al botó verd amb un guió per allunyar la imatge; o en les fletxes verdes per a mapes adjacents.


METAR-TAF: